METAR Data
IDs: Format: Raw Decoded Include TAF

Data at: 1214 UTC 17 Sep 2019

METAR for:TIST (St Thomas/King Arpt, --, VI)
Text:TIST 171153Z 10011G20KT 10SM FEW023 30/24 A2993 RMK AO2 SLP136 70026 T03000244 10300 20272 51014 $
Temperature: 30.0°C ( 86°F)
Dewpoint: 24.4°C ( 76°F) [RH = 72%]
Pressure (altimeter):29.93 inches Hg (1013.6 mb) [Sea level pressure: 1013.6 mb]
Winds:from the E (100 degrees) at 13 MPH (11 knots; 5.7 m/s) gusting to 23 MPH (20 knots; 10.3 m/s)
Visibility:10 or more sm (16+ km)
Ceiling:at least 12,000 feet AGL
Clouds: few clouds at 2300 feet AGL
QC Flag:SOME DATA ABOVE MAY BE INACCURATE!!!"$" is an indication the sensor requires maintenance.